Sabael, NY (12864)

2:43 PM EDT on October 31, 2014 (GMT -0400)
Indian Lake | Change Station
CLOSE
Current Station
Personal Weather Station
Location: Indian Lake, NY
Elevation: 1660 ft
Nearby Weather Stations

Elev 1660 ft 43.75 °N, 74.28 °W | Updated 0 second ago

Partly Cloudy
Partly Cloudy
45.0 °F
Feels Like 43 °F
N
3.6
Wind Variable Wind from ENE
Gusts 3.6 mph

Today
High -- | Low -- °F
--% Chance of Precip.
Yesterday
High -- | Low -- °F
Precip. -- in
7:31 AM 5:49 PM
First Quarter, 58% visible
Pressure 30.00 in
Visibility 10.0 miles
Clouds Clear
Windchill 43 °F
Dew Point 32 °F
Humidity 60%
Rainfall 0.00 in
Snow Depth Not available.
UV 3 out of 12
Pollen .10 out of 12
Air Quality Not available.
Flu Activity Not available.
METAR KGFL 311753Z AUTO VRB03KT 10SM CLR 10/00 A2998 RMK AO2 SLP159 T01000000 10100 21017 58018

More Conditions Fewer Conditions

Pressure 30.00 in
Visibility 10.0 miles
Clouds Clear
Windchill 43 °F
Dew Point 32 °F
Humidity 60%
Rainfall 0.00 in
Snow Depth Not available.
UV 3 out of 12
Pollen .10 out of 12
Air Quality Not available.
Flu Activity Not available.
METAR KGFL 311753Z AUTO VRB03KT 10SM CLR 10/00 A2998 RMK AO2 SLP159 T01000000 10100 21017 58018

More Conditions Fewer Conditions

10-Day Weather Forecast

Almanac

Astronomy

Oct. 31, 2014 Rise Set
Actual Time
Civil Twilight
Nautical Twilight
Astronomical Twilight
Moon
Length of Visible Light
Length of Day
Tomorrow will be .
, % of the Moon is Illuminated

Today's Extremes

State Highs State Lows

Community

WunderPhotos

Upload Photos

1,766,690 photos uploaded!

WunderBlogs® & News

Nearby

Air Quality

  Air Quality AQ Index Pollutant
Not available.

Snow Depth

Station Depth Elevation

Earthquake Activity

City Distance Mag. Time & Date
Minimum magnitude displayed is 2.5.

Coastal Water Temperatures

Place Temperature

Nearby Weather Stations